sensor_id;sensor_type;location;lat;lon;timestamp;P1;durP1;ratioP1;P2;durP2;ratioP2
21878;SDS011;27908;42.708;23.278;2023-11-21T00:00:14;37.00;;;16.93;;
21878;SDS011;27908;42.708;23.278;2023-11-21T00:02:41;38.47;;;18.05;;
21878;SDS011;27908;42.708;23.278;2023-11-21T00:05:07;39.80;;;17.98;;
21878;SDS011;27908;42.708;23.278;2023-11-21T00:07:37;39.80;;;19.35;;
21878;SDS011;27908;42.708;23.278;2023-11-21T00:10:03;38.77;;;17.10;;
21878;SDS011;27908;42.708;23.278;2023-11-21T00:12:33;35.63;;;16.42;;
21878;SDS011;27908;42.708;23.278;2023-11-21T00:14:59;35.97;;;16.63;;
21878;SDS011;27908;42.708;23.278;2023-11-21T00:17:25;45.13;;;18.33;;
21878;SDS011;27908;42.708;23.278;2023-11-21T00:19:50;36.40;;;16.67;;
21878;SDS011;27908;42.708;23.278;2023-11-21T00:22:19;43.38;;;17.50;;
21878;SDS011;27908;42.708;23.278;2023-11-21T00:24:45;43.00;;;17.58;;
21878;SDS011;27908;42.708;23.278;2023-11-21T00:27:11;38.00;;;17.58;;
21878;SDS011;27908;42.708;23.278;2023-11-21T00:29:36;38.77;;;15.90;;
21878;SDS011;27908;42.708;23.278;2023-11-21T00:32:03;36.45;;;17.15;;
21878;SDS011;27908;42.708;23.278;2023-11-21T00:34:30;36.60;;;15.77;;
21878;SDS011;27908;42.708;23.278;2023-11-21T00:36:56;35.57;;;16.70;;
21878;SDS011;27908;42.708;23.278;2023-11-21T00:39:21;32.47;;;16.33;;
21878;SDS011;27908;42.708;23.278;2023-11-21T00:41:47;34.05;;;15.35;;
21878;SDS011;27908;42.708;23.278;2023-11-21T00:44:13;33.97;;;15.73;;
21878;SDS011;27908;42.708;23.278;2023-11-21T00:46:39;32.97;;;14.85;;
21878;SDS011;27908;42.708;23.278;2023-11-21T00:49:04;36.07;;;16.00;;
21878;SDS011;27908;42.708;23.278;2023-11-21T00:51:30;39.77;;;15.73;;
21878;SDS011;27908;42.708;23.278;2023-11-21T00:53:55;30.45;;;13.38;;
21878;SDS011;27908;42.708;23.278;2023-11-21T00:56:21;26.00;;;12.57;;
21878;SDS011;27908;42.708;23.278;2023-11-21T00:58:47;32.60;;;13.57;;
21878;SDS011;27908;42.708;23.278;2023-11-21T01:01:15;30.57;;;14.20;;
21878;SDS011;27908;42.708;23.278;2023-11-21T01:03:41;28.52;;;12.95;;
21878;SDS011;27908;42.708;23.278;2023-11-21T01:06:07;31.42;;;12.27;;
21878;SDS011;27908;42.708;23.278;2023-11-21T01:08:34;29.50;;;12.38;;
21878;SDS011;27908;42.708;23.278;2023-11-21T01:11:00;28.50;;;12.97;;
21878;SDS011;27908;42.708;23.278;2023-11-21T01:13:26;27.90;;;13.18;;
21878;SDS011;27908;42.708;23.278;2023-11-21T01:15:55;28.83;;;12.80;;
21878;SDS011;27908;42.708;23.278;2023-11-21T01:18:21;25.48;;;13.32;;
21878;SDS011;27908;42.708;23.278;2023-11-21T01:20:46;23.60;;;11.20;;
21878;SDS011;27908;42.708;23.278;2023-11-21T01:23:12;27.83;;;12.33;;
21878;SDS011;27908;42.708;23.278;2023-11-21T01:25:38;28.35;;;12.38;;
21878;SDS011;27908;42.708;23.278;2023-11-21T01:28:04;29.80;;;13.00;;
21878;SDS011;27908;42.708;23.278;2023-11-21T01:30:29;25.17;;;13.23;;
21878;SDS011;27908;42.708;23.278;2023-11-21T01:32:56;28.60;;;12.98;;
21878;SDS011;27908;42.708;23.278;2023-11-21T01:35:21;29.83;;;13.50;;
21878;SDS011;27908;42.708;23.278;2023-11-21T01:37:47;29.53;;;13.97;;
21878;SDS011;27908;42.708;23.278;2023-11-21T01:40:13;28.42;;;13.07;;
21878;SDS011;27908;42.708;23.278;2023-11-21T01:42:39;29.13;;;12.70;;
21878;SDS011;27908;42.708;23.278;2023-11-21T01:45:05;25.20;;;11.93;;
21878;SDS011;27908;42.708;23.278;2023-11-21T01:47:32;25.58;;;12.27;;
21878;SDS011;27908;42.708;23.278;2023-11-21T01:49:59;27.33;;;12.95;;
21878;SDS011;27908;42.708;23.278;2023-11-21T01:52:25;28.93;;;12.97;;
21878;SDS011;27908;42.708;23.278;2023-11-21T01:54:50;31.38;;;13.35;;
21878;SDS011;27908;42.708;23.278;2023-11-21T01:57:18;25.23;;;11.50;;
21878;SDS011;27908;42.708;23.278;2023-11-21T01:59:45;28.25;;;12.75;;
21878;SDS011;27908;42.708;23.278;2023-11-21T02:02:13;26.57;;;12.10;;
21878;SDS011;27908;42.708;23.278;2023-11-21T02:04:39;29.20;;;12.52;;
21878;SDS011;27908;42.708;23.278;2023-11-21T02:07:05;28.27;;;11.80;;
21878;SDS011;27908;42.708;23.278;2023-11-21T02:09:30;26.10;;;11.63;;
21878;SDS011;27908;42.708;23.278;2023-11-21T02:11:56;27.17;;;12.57;;
21878;SDS011;27908;42.708;23.278;2023-11-21T02:14:24;27.58;;;13.20;;
21878;SDS011;27908;42.708;23.278;2023-11-21T02:16:53;27.27;;;12.40;;
21878;SDS011;27908;42.708;23.278;2023-11-21T02:19:19;37.33;;;13.30;;
21878;SDS011;27908;42.708;23.278;2023-11-21T02:21:49;26.13;;;11.40;;
21878;SDS011;27908;42.708;23.278;2023-11-21T02:24:15;27.80;;;10.98;;
21878;SDS011;27908;42.708;23.278;2023-11-21T02:26:42;23.83;;;12.32;;
21878;SDS011;27908;42.708;23.278;2023-11-21T02:29:08;30.63;;;13.17;;
21878;SDS011;27908;42.708;23.278;2023-11-21T02:31:37;31.63;;;12.68;;
21878;SDS011;27908;42.708;23.278;2023-11-21T02:34:10;29.92;;;12.90;;
21878;SDS011;27908;42.708;23.278;2023-11-21T02:36:38;27.17;;;12.95;;
21878;SDS011;27908;42.708;23.278;2023-11-21T02:39:04;29.08;;;12.93;;
21878;SDS011;27908;42.708;23.278;2023-11-21T02:41:29;24.85;;;12.00;;
21878;SDS011;27908;42.708;23.278;2023-11-21T02:43:55;26.70;;;11.17;;
21878;SDS011;27908;42.708;23.278;2023-11-21T02:46:20;25.57;;;11.40;;
21878;SDS011;27908;42.708;23.278;2023-11-21T02:48:47;25.85;;;12.05;;
21878;SDS011;27908;42.708;23.278;2023-11-21T02:51:12;23.73;;;12.30;;
21878;SDS011;27908;42.708;23.278;2023-11-21T02:53:38;29.13;;;12.00;;
21878;SDS011;27908;42.708;23.278;2023-11-21T02:56:04;24.80;;;11.27;;
21878;SDS011;27908;42.708;23.278;2023-11-21T02:58:29;27.13;;;10.98;;
21878;SDS011;27908;42.708;23.278;2023-11-21T03:00:55;28.50;;;11.70;;
21878;SDS011;27908;42.708;23.278;2023-11-21T03:03:21;27.02;;;11.73;;
21878;SDS011;27908;42.708;23.278;2023-11-21T03:05:48;24.83;;;10.80;;
21878;SDS011;27908;42.708;23.278;2023-11-21T03:08:14;21.53;;;10.20;;
21878;SDS011;27908;42.708;23.278;2023-11-21T03:10:39;22.45;;;10.60;;
21878;SDS011;27908;42.708;23.278;2023-11-21T03:13:05;31.83;;;12.67;;
21878;SDS011;27908;42.708;23.278;2023-11-21T03:15:30;24.13;;;12.00;;
21878;SDS011;27908;42.708;23.278;2023-11-21T03:17:57;28.05;;;13.23;;
21878;SDS011;27908;42.708;23.278;2023-11-21T03:20:23;37.23;;;14.47;;
21878;SDS011;27908;42.708;23.278;2023-11-21T03:22:48;26.23;;;12.30;;
21878;SDS011;27908;42.708;23.278;2023-11-21T03:25:14;26.57;;;13.77;;
21878;SDS011;27908;42.708;23.278;2023-11-21T03:27:42;27.55;;;13.88;;
21878;SDS011;27908;42.708;23.278;2023-11-21T03:30:09;27.90;;;13.37;;
21878;SDS011;27908;42.708;23.278;2023-11-21T03:32:36;30.63;;;13.65;;
21878;SDS011;27908;42.708;23.278;2023-11-21T03:35:01;33.15;;;14.15;;
21878;SDS011;27908;42.708;23.278;2023-11-21T03:37:27;28.25;;;14.90;;
21878;SDS011;27908;42.708;23.278;2023-11-21T03:39:53;28.90;;;11.77;;
21878;SDS011;27908;42.708;23.278;2023-11-21T03:42:20;37.08;;;17.05;;
21878;SDS011;27908;42.708;23.278;2023-11-21T03:44:45;34.83;;;15.70;;
21878;SDS011;27908;42.708;23.278;2023-11-21T03:47:11;31.27;;;13.67;;
21878;SDS011;27908;42.708;23.278;2023-11-21T03:49:37;31.20;;;15.23;;
21878;SDS011;27908;42.708;23.278;2023-11-21T03:52:02;32.42;;;13.13;;
21878;SDS011;27908;42.708;23.278;2023-11-21T03:54:28;34.40;;;15.65;;
21878;SDS011;27908;42.708;23.278;2023-11-21T03:56:53;34.50;;;16.60;;
21878;SDS011;27908;42.708;23.278;2023-11-21T03:59:19;40.57;;;18.17;;
21878;SDS011;27908;42.708;23.278;2023-11-21T04:01:44;33.73;;;15.63;;
21878;SDS011;27908;42.708;23.278;2023-11-21T04:04:10;40.03;;;18.20;;
21878;SDS011;27908;42.708;23.278;2023-11-21T04:06:35;38.38;;;16.60;;
21878;SDS011;27908;42.708;23.278;2023-11-21T04:09:02;33.07;;;16.00;;
21878;SDS011;27908;42.708;23.278;2023-11-21T04:11:29;33.95;;;16.48;;
21878;SDS011;27908;42.708;23.278;2023-11-21T04:13:55;31.58;;;15.27;;
21878;SDS011;27908;42.708;23.278;2023-11-21T04:16:20;32.37;;;16.37;;
21878;SDS011;27908;42.708;23.278;2023-11-21T04:18:46;35.80;;;16.93;;
21878;SDS011;27908;42.708;23.278;2023-11-21T04:21:11;35.60;;;17.70;;
21878;SDS011;27908;42.708;23.278;2023-11-21T04:23:37;34.15;;;16.48;;
21878;SDS011;27908;42.708;23.278;2023-11-21T04:26:02;37.87;;;16.67;;
21878;SDS011;27908;42.708;23.278;2023-11-21T04:28:28;30.77;;;16.80;;
21878;SDS011;27908;42.708;23.278;2023-11-21T04:30:53;34.95;;;16.60;;
21878;SDS011;27908;42.708;23.278;2023-11-21T04:33:19;35.93;;;17.20;;
21878;SDS011;27908;42.708;23.278;2023-11-21T04:35:44;34.03;;;15.37;;
21878;SDS011;27908;42.708;23.278;2023-11-21T04:38:10;32.08;;;14.68;;
21878;SDS011;27908;42.708;23.278;2023-11-21T04:40:35;32.60;;;15.87;;
21878;SDS011;27908;42.708;23.278;2023-11-21T04:43:01;29.07;;;14.87;;
21878;SDS011;27908;42.708;23.278;2023-11-21T04:45:27;30.25;;;14.20;;
21878;SDS011;27908;42.708;23.278;2023-11-21T04:47:52;38.67;;;14.97;;
21878;SDS011;27908;42.708;23.278;2023-11-21T04:50:17;33.67;;;15.17;;
21878;SDS011;27908;42.708;23.278;2023-11-21T04:52:44;32.33;;;14.68;;
21878;SDS011;27908;42.708;23.278;2023-11-21T04:55:09;30.88;;;14.15;;
21878;SDS011;27908;42.708;23.278;2023-11-21T04:57:35;34.65;;;16.02;;
21878;SDS011;27908;42.708;23.278;2023-11-21T05:00:02;37.38;;;16.33;;
21878;SDS011;27908;42.708;23.278;2023-11-21T05:02:30;32.45;;;16.52;;
21878;SDS011;27908;42.708;23.278;2023-11-21T05:04:59;34.20;;;15.83;;
21878;SDS011;27908;42.708;23.278;2023-11-21T05:07:24;29.05;;;14.50;;
21878;SDS011;27908;42.708;23.278;2023-11-21T05:09:52;36.25;;;16.65;;
21878;SDS011;27908;42.708;23.278;2023-11-21T05:12:17;34.13;;;15.67;;
21878;SDS011;27908;42.708;23.278;2023-11-21T05:14:43;34.50;;;13.70;;
21878;SDS011;27908;42.708;23.278;2023-11-21T05:17:08;28.17;;;13.43;;
21878;SDS011;27908;42.708;23.278;2023-11-21T05:19:34;29.02;;;13.32;;
21878;SDS011;27908;42.708;23.278;2023-11-21T05:22:00;25.88;;;12.57;;
21878;SDS011;27908;42.708;23.278;2023-11-21T05:24:26;26.92;;;13.48;;
21878;SDS011;27908;42.708;23.278;2023-11-21T05:26:51;29.67;;;14.27;;
21878;SDS011;27908;42.708;23.278;2023-11-21T05:29:18;31.23;;;14.27;;
21878;SDS011;27908;42.708;23.278;2023-11-21T05:31:43;28.07;;;14.00;;
21878;SDS011;27908;42.708;23.278;2023-11-21T05:34:08;34.00;;;14.53;;
21878;SDS011;27908;42.708;23.278;2023-11-21T05:36:34;30.30;;;15.20;;
21878;SDS011;27908;42.708;23.278;2023-11-21T05:38:59;35.53;;;15.83;;
21878;SDS011;27908;42.708;23.278;2023-11-21T05:41:25;31.17;;;14.57;;
21878;SDS011;27908;42.708;23.278;2023-11-21T05:43:50;29.40;;;15.05;;
21878;SDS011;27908;42.708;23.278;2023-11-21T05:46:16;32.87;;;15.97;;
21878;SDS011;27908;42.708;23.278;2023-11-21T05:48:41;32.63;;;13.77;;
21878;SDS011;27908;42.708;23.278;2023-11-21T05:51:07;31.63;;;14.15;;
21878;SDS011;27908;42.708;23.278;2023-11-21T05:53:33;36.00;;;16.17;;
21878;SDS011;27908;42.708;23.278;2023-11-21T05:55:59;32.93;;;14.70;;
21878;SDS011;27908;42.708;23.278;2023-11-21T05:58:25;37.72;;;16.00;;
21878;SDS011;27908;42.708;23.278;2023-11-21T06:00:50;37.47;;;18.07;;
21878;SDS011;27908;42.708;23.278;2023-11-21T06:03:16;45.20;;;20.93;;
21878;SDS011;27908;42.708;23.278;2023-11-21T06:05:42;43.33;;;19.75;;
21878;SDS011;27908;42.708;23.278;2023-11-21T06:08:08;30.45;;;14.45;;
21878;SDS011;27908;42.708;23.278;2023-11-21T06:10:34;28.63;;;14.57;;
21878;SDS011;27908;42.708;23.278;2023-11-21T06:12:59;34.92;;;15.23;;
21878;SDS011;27908;42.708;23.278;2023-11-21T06:15:25;30.90;;;15.10;;
21878;SDS011;27908;42.708;23.278;2023-11-21T06:17:50;29.13;;;15.70;;
21878;SDS011;27908;42.708;23.278;2023-11-21T06:20:19;36.97;;;18.00;;
21878;SDS011;27908;42.708;23.278;2023-11-21T06:22:47;54.33;;;24.98;;
21878;SDS011;27908;42.708;23.278;2023-11-21T06:25:13;43.33;;;21.48;;
21878;SDS011;27908;42.708;23.278;2023-11-21T06:27:43;55.00;;;25.03;;
21878;SDS011;27908;42.708;23.278;2023-11-21T06:30:09;52.83;;;26.80;;
21878;SDS011;27908;42.708;23.278;2023-11-21T06:32:36;47.42;;;22.70;;
21878;SDS011;27908;42.708;23.278;2023-11-21T06:35:03;46.33;;;21.67;;
21878;SDS011;27908;42.708;23.278;2023-11-21T06:37:30;40.43;;;18.93;;
21878;SDS011;27908;42.708;23.278;2023-11-21T06:39:56;37.13;;;18.52;;
21878;SDS011;27908;42.708;23.278;2023-11-21T06:42:23;41.10;;;19.00;;
21878;SDS011;27908;42.708;23.278;2023-11-21T06:44:52;40.50;;;19.33;;
21878;SDS011;27908;42.708;23.278;2023-11-21T06:47:22;42.25;;;18.83;;
21878;SDS011;27908;42.708;23.278;2023-11-21T06:49:51;33.27;;;16.73;;
21878;SDS011;27908;42.708;23.278;2023-11-21T06:52:18;39.75;;;18.00;;
21878;SDS011;27908;42.708;23.278;2023-11-21T06:54:44;32.90;;;17.15;;
21878;SDS011;27908;42.708;23.278;2023-11-21T06:57:10;37.88;;;16.42;;
21878;SDS011;27908;42.708;23.278;2023-11-21T06:59:36;31.40;;;15.77;;
21878;SDS011;27908;42.708;23.278;2023-11-21T07:02:02;32.47;;;16.57;;
21878;SDS011;27908;42.708;23.278;2023-11-21T07:04:28;35.63;;;16.63;;
21878;SDS011;27908;42.708;23.278;2023-11-21T07:06:53;37.37;;;16.93;;
21878;SDS011;27908;42.708;23.278;2023-11-21T07:09:19;47.20;;;18.25;;
21878;SDS011;27908;42.708;23.278;2023-11-21T07:11:48;43.30;;;18.80;;
21878;SDS011;27908;42.708;23.278;2023-11-21T07:14:14;43.97;;;19.60;;
21878;SDS011;27908;42.708;23.278;2023-11-21T07:16:41;40.22;;;17.75;;
21878;SDS011;27908;42.708;23.278;2023-11-21T07:19:07;38.10;;;16.63;;
21878;SDS011;27908;42.708;23.278;2023-11-21T07:21:33;42.35;;;17.25;;
21878;SDS011;27908;42.708;23.278;2023-11-21T07:24:00;40.75;;;18.30;;
21878;SDS011;27908;42.708;23.278;2023-11-21T07:26:28;35.05;;;17.05;;
21878;SDS011;27908;42.708;23.278;2023-11-21T07:28:54;36.73;;;17.17;;
21878;SDS011;27908;42.708;23.278;2023-11-21T07:31:21;36.30;;;17.17;;
21878;SDS011;27908;42.708;23.278;2023-11-21T07:33:46;37.85;;;17.92;;
21878;SDS011;27908;42.708;23.278;2023-11-21T07:36:12;38.50;;;17.83;;
21878;SDS011;27908;42.708;23.278;2023-11-21T07:38:38;37.88;;;18.83;;
21878;SDS011;27908;42.708;23.278;2023-11-21T07:41:04;37.20;;;17.20;;
21878;SDS011;27908;42.708;23.278;2023-11-21T07:43:30;33.55;;;17.17;;
21878;SDS011;27908;42.708;23.278;2023-11-21T07:46:00;37.53;;;18.30;;
21878;SDS011;27908;42.708;23.278;2023-11-21T07:48:27;35.00;;;16.70;;
21878;SDS011;27908;42.708;23.278;2023-11-21T07:50:53;39.03;;;17.27;;
21878;SDS011;27908;42.708;23.278;2023-11-21T07:53:19;33.23;;;17.27;;
21878;SDS011;27908;42.708;23.278;2023-11-21T07:55:44;33.77;;;17.43;;
21878;SDS011;27908;42.708;23.278;2023-11-21T07:58:12;30.88;;;16.88;;
21878;SDS011;27908;42.708;23.278;2023-11-21T08:00:38;37.30;;;18.40;;
21878;SDS011;27908;42.708;23.278;2023-11-21T08:03:04;39.45;;;18.02;;
21878;SDS011;27908;42.708;23.278;2023-11-21T08:05:31;33.33;;;17.60;;
21878;SDS011;27908;42.708;23.278;2023-11-21T08:07:56;36.75;;;17.38;;
21878;SDS011;27908;42.708;23.278;2023-11-21T08:10:22;38.70;;;17.87;;
21878;SDS011;27908;42.708;23.278;2023-11-21T08:12:47;34.23;;;18.00;;
21878;SDS011;27908;42.708;23.278;2023-11-21T08:15:13;35.75;;;18.38;;
21878;SDS011;27908;42.708;23.278;2023-11-21T08:17:39;35.13;;;16.98;;
21878;SDS011;27908;42.708;23.278;2023-11-21T08:20:05;37.93;;;18.07;;
21878;SDS011;27908;42.708;23.278;2023-11-21T08:22:33;35.80;;;17.83;;
21878;SDS011;27908;42.708;23.278;2023-11-21T08:24:59;35.60;;;17.50;;
21878;SDS011;27908;42.708;23.278;2023-11-21T08:27:25;40.50;;;18.98;;
21878;SDS011;27908;42.708;23.278;2023-11-21T08:29:50;38.70;;;17.80;;
21878;SDS011;27908;42.708;23.278;2023-11-21T08:32:17;34.60;;;16.75;;
21878;SDS011;27908;42.708;23.278;2023-11-21T08:34:43;33.22;;;17.08;;
21878;SDS011;27908;42.708;23.278;2023-11-21T08:37:09;35.47;;;17.50;;
21878;SDS011;27908;42.708;23.278;2023-11-21T08:39:36;31.60;;;16.60;;
21878;SDS011;27908;42.708;23.278;2023-11-21T08:42:02;27.13;;;13.90;;
21878;SDS011;27908;42.708;23.278;2023-11-21T08:44:28;32.38;;;14.70;;
21878;SDS011;27908;42.708;23.278;2023-11-21T08:46:55;27.27;;;14.15;;
21878;SDS011;27908;42.708;23.278;2023-11-21T08:49:20;38.33;;;16.00;;
21878;SDS011;27908;42.708;23.278;2023-11-21T08:51:46;33.60;;;17.23;;
21878;SDS011;27908;42.708;23.278;2023-11-21T08:54:11;39.73;;;19.07;;
21878;SDS011;27908;42.708;23.278;2023-11-21T08:56:37;43.13;;;19.08;;
21878;SDS011;27908;42.708;23.278;2023-11-21T08:59:02;37.57;;;18.93;;
21878;SDS011;27908;42.708;23.278;2023-11-21T09:01:29;33.67;;;17.80;;
21878;SDS011;27908;42.708;23.278;2023-11-21T09:03:56;42.70;;;19.30;;
21878;SDS011;27908;42.708;23.278;2023-11-21T09:06:22;36.38;;;18.33;;
21878;SDS011;27908;42.708;23.278;2023-11-21T09:08:48;33.90;;;17.57;;
21878;SDS011;27908;42.708;23.278;2023-11-21T09:11:13;31.73;;;16.83;;
21878;SDS011;27908;42.708;23.278;2023-11-21T09:13:39;33.15;;;17.13;;
21878;SDS011;27908;42.708;23.278;2023-11-21T09:16:04;39.67;;;19.50;;
21878;SDS011;27908;42.708;23.278;2023-11-21T09:18:30;36.43;;;19.40;;
21878;SDS011;27908;42.708;23.278;2023-11-21T09:20:56;37.75;;;18.95;;
21878;SDS011;27908;42.708;23.278;2023-11-21T09:23:21;40.10;;;21.03;;
21878;SDS011;27908;42.708;23.278;2023-11-21T09:25:47;43.72;;;21.13;;
21878;SDS011;27908;42.708;23.278;2023-11-21T09:28:15;41.30;;;19.47;;
21878;SDS011;27908;42.708;23.278;2023-11-21T09:30:42;39.45;;;19.75;;
21878;SDS011;27908;42.708;23.278;2023-11-21T09:33:08;40.90;;;19.92;;
21878;SDS011;27908;42.708;23.278;2023-11-21T09:35:37;38.97;;;19.98;;
21878;SDS011;27908;42.708;23.278;2023-11-21T09:38:03;38.93;;;19.07;;
21878;SDS011;27908;42.708;23.278;2023-11-21T09:40:35;38.97;;;19.33;;
21878;SDS011;27908;42.708;23.278;2023-11-21T09:43:01;42.67;;;19.35;;
21878;SDS011;27908;42.708;23.278;2023-11-21T09:45:40;41.37;;;19.90;;
21878;SDS011;27908;42.708;23.278;2023-11-21T09:48:10;38.25;;;19.60;;
21878;SDS011;27908;42.708;23.278;2023-11-21T09:50:37;40.85;;;18.80;;
21878;SDS011;27908;42.708;23.278;2023-11-21T09:53:19;45.33;;;19.33;;
21878;SDS011;27908;42.708;23.278;2023-11-21T09:55:52;39.67;;;19.10;;
21878;SDS011;27908;42.708;23.278;2023-11-21T09:58:18;36.13;;;19.77;;
21878;SDS011;27908;42.708;23.278;2023-11-21T10:00:45;36.42;;;18.15;;
21878;SDS011;27908;42.708;23.278;2023-11-21T10:03:12;34.03;;;16.50;;
21878;SDS011;27908;42.708;23.278;2023-11-21T10:05:39;34.87;;;17.87;;
21878;SDS011;27908;42.708;23.278;2023-11-21T10:08:10;36.15;;;18.42;;
21878;SDS011;27908;42.708;23.278;2023-11-21T10:10:36;33.92;;;17.98;;
21878;SDS011;27908;42.708;23.278;2023-11-21T10:13:04;38.67;;;17.52;;
21878;SDS011;27908;42.708;23.278;2023-11-21T10:15:31;37.85;;;17.42;;
21878;SDS011;27908;42.708;23.278;2023-11-21T10:18:03;37.33;;;16.93;;
21878;SDS011;27908;42.708;23.278;2023-11-21T10:20:30;33.15;;;17.35;;
21878;SDS011;27908;42.708;23.278;2023-11-21T10:22:56;30.73;;;16.52;;
21878;SDS011;27908;42.708;23.278;2023-11-21T10:25:22;28.47;;;15.13;;
21878;SDS011;27908;42.708;23.278;2023-11-21T10:27:48;36.38;;;16.17;;
21878;SDS011;27908;42.708;23.278;2023-11-21T10:30:16;31.00;;;15.88;;
21878;SDS011;27908;42.708;23.278;2023-11-21T10:32:43;32.57;;;14.87;;
21878;SDS011;27908;42.708;23.278;2023-11-21T10:35:09;30.88;;;16.80;;
21878;SDS011;27908;42.708;23.278;2023-11-21T10:37:39;29.45;;;16.23;;
21878;SDS011;27908;42.708;23.278;2023-11-21T10:40:08;32.75;;;16.85;;
21878;SDS011;27908;42.708;23.278;2023-11-21T10:42:40;31.27;;;15.93;;
21878;SDS011;27908;42.708;23.278;2023-11-21T10:45:09;33.20;;;15.80;;
21878;SDS011;27908;42.708;23.278;2023-11-21T10:47:42;38.85;;;16.67;;
21878;SDS011;27908;42.708;23.278;2023-11-21T10:50:09;30.70;;;15.15;;
21878;SDS011;27908;42.708;23.278;2023-11-21T10:52:39;31.17;;;16.00;;
21878;SDS011;27908;42.708;23.278;2023-11-21T10:55:17;35.25;;;16.48;;
21878;SDS011;27908;42.708;23.278;2023-11-21T10:57:48;29.00;;;15.47;;
21878;SDS011;27908;42.708;23.278;2023-11-21T11:00:16;34.78;;;15.73;;
21878;SDS011;27908;42.708;23.278;2023-11-21T11:02:45;34.35;;;17.15;;
21878;SDS011;27908;42.708;23.278;2023-11-21T11:05:15;33.05;;;15.05;;
21878;SDS011;27908;42.708;23.278;2023-11-21T11:07:44;43.38;;;20.38;;
21878;SDS011;27908;42.708;23.278;2023-11-21T11:10:12;34.03;;;16.83;;
21878;SDS011;27908;42.708;23.278;2023-11-21T11:12:39;35.85;;;16.95;;
21878;SDS011;27908;42.708;23.278;2023-11-21T11:15:06;34.85;;;15.20;;
21878;SDS011;27908;42.708;23.278;2023-11-21T11:17:35;30.42;;;15.18;;
21878;SDS011;27908;42.708;23.278;2023-11-21T11:20:07;32.65;;;15.52;;
21878;SDS011;27908;42.708;23.278;2023-11-21T11:22:37;30.67;;;14.90;;
21878;SDS011;27908;42.708;23.278;2023-11-21T11:25:30;29.52;;;14.80;;
21878;SDS011;27908;42.708;23.278;2023-11-21T11:28:19;29.73;;;14.60;;
21878;SDS011;27908;42.708;23.278;2023-11-21T11:38:32;26.88;;;13.40;;
21878;SDS011;27908;42.708;23.278;2023-11-21T11:41:01;29.08;;;12.85;;
21878;SDS011;27908;42.708;23.278;2023-11-21T11:43:29;24.00;;;12.77;;
21878;SDS011;27908;42.708;23.278;2023-11-21T11:45:57;25.17;;;11.95;;
21878;SDS011;27908;42.708;23.278;2023-11-21T11:48:24;23.00;;;12.77;;
21878;SDS011;27908;42.708;23.278;2023-11-21T11:51:12;24.77;;;11.85;;
21878;SDS011;27908;42.708;23.278;2023-11-21T11:53:40;27.02;;;12.32;;
21878;SDS011;27908;42.708;23.278;2023-11-21T11:58:48;28.58;;;14.50;;
21878;SDS011;27908;42.708;23.278;2023-11-21T12:01:16;34.33;;;16.02;;
21878;SDS011;27908;42.708;23.278;2023-11-21T12:03:43;34.78;;;15.88;;
21878;SDS011;27908;42.708;23.278;2023-11-21T12:06:09;29.97;;;14.77;;
21878;SDS011;27908;42.708;23.278;2023-11-21T12:08:36;27.35;;;14.35;;
21878;SDS011;27908;42.708;23.278;2023-11-21T12:11:03;30.13;;;15.77;;
21878;SDS011;27908;42.708;23.278;2023-11-21T12:13:29;28.75;;;14.02;;
21878;SDS011;27908;42.708;23.278;2023-11-21T12:15:55;29.07;;;14.90;;
21878;SDS011;27908;42.708;23.278;2023-11-21T12:18:21;30.92;;;14.93;;
21878;SDS011;27908;42.708;23.278;2023-11-21T12:20:46;31.17;;;14.27;;
21878;SDS011;27908;42.708;23.278;2023-11-21T12:23:13;31.90;;;15.68;;
21878;SDS011;27908;42.708;23.278;2023-11-21T12:25:41;33.47;;;16.02;;
21878;SDS011;27908;42.708;23.278;2023-11-21T12:28:07;33.07;;;15.20;;
21878;SDS011;27908;42.708;23.278;2023-11-21T12:30:35;28.93;;;14.57;;
21878;SDS011;27908;42.708;23.278;2023-11-21T12:33:03;26.75;;;13.00;;
21878;SDS011;27908;42.708;23.278;2023-11-21T12:35:30;33.42;;;15.20;;
21878;SDS011;27908;42.708;23.278;2023-11-21T12:37:58;28.63;;;14.75;;
21878;SDS011;27908;42.708;23.278;2023-11-21T12:40:25;26.90;;;13.20;;
21878;SDS011;27908;42.708;23.278;2023-11-21T12:42:54;28.40;;;13.82;;
21878;SDS011;27908;42.708;23.278;2023-11-21T12:47:51;27.27;;;13.45;;
21878;SDS011;27908;42.708;23.278;2023-11-21T12:50:29;29.08;;;13.07;;
21878;SDS011;27908;42.708;23.278;2023-11-21T12:53:00;26.03;;;11.70;;
21878;SDS011;27908;42.708;23.278;2023-11-21T12:55:26;25.67;;;11.65;;
21878;SDS011;27908;42.708;23.278;2023-11-21T12:57:55;28.45;;;12.82;;
21878;SDS011;27908;42.708;23.278;2023-11-21T13:01:06;30.83;;;11.38;;
21878;SDS011;27908;42.708;23.278;2023-11-21T13:03:14;23.52;;;11.68;;
21878;SDS011;27908;42.708;23.278;2023-11-21T13:05:50;21.93;;;11.23;;
21878;SDS011;27908;42.708;23.278;2023-11-21T13:08:16;27.15;;;11.85;;
21878;SDS011;27908;42.708;23.278;2023-11-21T13:10:46;57.20;;;14.48;;
21878;SDS011;27908;42.708;23.278;2023-11-21T13:13:13;49.38;;;14.55;;
21878;SDS011;27908;42.708;23.278;2023-11-21T13:15:49;39.47;;;12.70;;
21878;SDS011;27908;42.708;23.278;2023-11-21T13:18:16;31.23;;;12.73;;
21878;SDS011;27908;42.708;23.278;2023-11-21T13:20:42;26.58;;;12.98;;
21878;SDS011;27908;42.708;23.278;2023-11-21T13:23:08;23.10;;;11.68;;
21878;SDS011;27908;42.708;23.278;2023-11-21T13:25:37;27.25;;;11.02;;
21878;SDS011;27908;42.708;23.278;2023-11-21T13:28:10;24.40;;;11.37;;
21878;SDS011;27908;42.708;23.278;2023-11-21T13:30:36;24.45;;;12.10;;
21878;SDS011;27908;42.708;23.278;2023-11-21T13:33:05;26.42;;;11.88;;
21878;SDS011;27908;42.708;23.278;2023-11-21T13:35:37;22.93;;;11.50;;
21878;SDS011;27908;42.708;23.278;2023-11-21T13:40:34;21.98;;;11.20;;
21878;SDS011;27908;42.708;23.278;2023-11-21T13:43:07;26.98;;;13.15;;
21878;SDS011;27908;42.708;23.278;2023-11-21T13:45:36;33.03;;;16.95;;
21878;SDS011;27908;42.708;23.278;2023-11-21T13:48:04;32.90;;;16.83;;
21878;SDS011;27908;42.708;23.278;2023-11-21T13:50:35;52.95;;;25.70;;
21878;SDS011;27908;42.708;23.278;2023-11-21T13:53:01;52.13;;;28.08;;
21878;SDS011;27908;42.708;23.278;2023-11-21T13:55:41;59.75;;;30.23;;
21878;SDS011;27908;42.708;23.278;2023-11-21T13:58:07;57.15;;;30.80;;
21878;SDS011;27908;42.708;23.278;2023-11-21T14:00:36;62.27;;;34.40;;
21878;SDS011;27908;42.708;23.278;2023-11-21T14:03:12;98.15;;;54.65;;
21878;SDS011;27908;42.708;23.278;2023-11-21T14:05:46;91.32;;;48.33;;
21878;SDS011;27908;42.708;23.278;2023-11-21T14:08:16;93.35;;;49.15;;
21878;SDS011;27908;42.708;23.278;2023-11-21T14:10:45;111.93;;;57.35;;
21878;SDS011;27908;42.708;23.278;2023-11-21T14:13:15;114.50;;;62.93;;
21878;SDS011;27908;42.708;23.278;2023-11-21T14:15:48;111.00;;;60.58;;
21878;SDS011;27908;42.708;23.278;2023-11-21T14:18:16;124.75;;;66.07;;
21878;SDS011;27908;42.708;23.278;2023-11-21T14:20:42;109.05;;;55.13;;
21878;SDS011;27908;42.708;23.278;2023-11-21T14:23:09;102.18;;;49.40;;